Time;durP1;ratioP1;P1;durP2;ratioP2;P2;SDS_P1;SDS_P2;PMS_P1;PMS_P2;Temp;Humidity;BMP_temperature;BMP_pressure;BME280_temperature;BME280_humidity;BME280_pressure;Samples;Min_cycle;Max_cycle;Signal;HPM_P1;HPM_P2
2021/08/03 00:00:03;;;;;;;5.33;1.73;;;;;;;14.77;69.99;100111.81;126448;1093;26290;-76
2021/08/03 00:02:33;;;;;;;5.70;1.90;;;;;;;14.76;69.96;100110.27;126441;1092;27632;-77
2021/08/03 00:05:03;;;;;;;5.53;1.50;;;;;;;14.75;70.51;100116.41;126584;1093;22856;-77
2021/08/03 00:07:34;;;;;;;5.67;1.67;;;;;;;14.74;70.54;100114.86;126458;1093;22818;-77
2021/08/03 00:10:07;;;;;;;5.05;1.60;;;;;;;14.75;70.69;100113.59;126423;1093;23251;-76
2021/08/03 00:12:36;;;;;;;5.73;1.60;;;;;;;14.75;70.52;100116.41;126455;1092;22843;-77
2021/08/03 00:15:06;;;;;;;5.80;1.80;;;;;;;14.73;71.13;100110.53;126454;1093;22773;-77
2021/08/03 00:17:34;;;;;;;4.53;1.60;;;;;;;14.72;71.13;100112.56;126446;1092;22809;-77
2021/08/03 00:20:05;;;;;;;5.60;1.90;;;;;;;14.71;71.23;100121.52;126517;1092;22828;-77
2021/08/03 00:22:34;;;;;;;8.63;1.70;;;;;;;14.69;71.27;100124.07;126494;1093;22766;-77
2021/08/03 00:25:03;;;;;;;5.43;1.30;;;;;;;14.67;71.55;100129.44;126458;1093;22845;-77
2021/08/03 00:27:32;;;;;;;6.00;1.53;;;;;;;14.65;71.38;100127.11;126506;1093;26276;-76
2021/08/03 00:30:01;;;;;;;4.00;1.60;;;;;;;14.64;71.56;100127.63;126448;1093;23021;-77
2021/08/03 00:32:29;;;;;;;6.55;1.50;;;;;;;14.62;71.83;100127.38;126614;1092;22780;-77
2021/08/03 00:34:58;;;;;;;4.60;1.40;;;;;;;14.63;72.00;100117.69;126414;1093;23576;-77
2021/08/03 00:37:30;;;;;;;6.90;1.70;;;;;;;14.63;72.09;100118.42;126473;1093;26519;-77
2021/08/03 00:39:59;;;;;;;5.30;1.85;;;;;;;14.63;71.91;100118.42;126547;1092;22855;-77
2021/08/03 00:42:27;;;;;;;8.25;1.60;;;;;;;14.63;72.14;100121.23;126300;1092;22769;-76
2021/08/03 00:44:56;;;;;;;6.80;1.80;;;;;;;14.63;72.39;100123.30;126407;1093;22842;-77
2021/08/03 00:47:24;;;;;;;4.85;1.70;;;;;;;14.62;72.20;100119.72;126461;1093;26481;-77
2021/08/03 00:49:53;;;;;;;7.75;1.60;;;;;;;14.65;72.35;100129.18;126397;1093;27224;-77
2021/08/03 00:52:22;;;;;;;5.80;1.75;;;;;;;14.65;72.66;100121.49;126438;1093;25977;-77
2021/08/03 00:54:50;;;;;;;4.83;1.60;;;;;;;14.68;73.05;100130.95;126437;1093;22790;-76
2021/08/03 00:57:19;;;;;;;6.65;1.95;;;;;;;14.67;73.35;100127.37;126469;1093;22790;-77
2021/08/03 00:59:47;;;;;;;6.40;1.70;;;;;;;14.68;73.22;100128.91;126472;1093;22851;-77
2021/08/03 01:02:16;;;;;;;4.25;1.60;;;;;;;14.70;73.46;100128.39;126491;1093;22802;-77
2021/08/03 01:04:46;;;;;;;5.05;1.45;;;;;;;14.71;73.47;100136.31;126484;1093;25967;-77
2021/08/03 01:07:22;;;;;;;8.00;1.80;;;;;;;14.72;73.67;100137.08;126324;1093;22935;-77
2021/08/03 01:10:02;;;;;;;7.67;2.13;;;;;;;14.75;73.82;100136.85;126488;1093;25842;-77
2021/08/03 01:12:46;;;;;;;6.28;1.53;;;;;;;14.76;73.83;100129.94;126409;1093;22922;-77
2021/08/03 01:15:18;;;;;;;6.50;2.30;;;;;;;14.77;74.04;100130.71;126422;1093;22771;-77
2021/08/03 01:17:54;;;;;;;7.75;1.90;;;;;;;14.77;73.78;100128.67;126591;1093;22767;-77
2021/08/03 01:20:29;;;;;;;6.60;2.03;;;;;;;14.79;74.01;100126.12;126462;1093;22842;-77
2021/08/03 01:23:20;;;;;;;7.50;2.00;;;;;;;14.80;74.32;100127.64;126388;1093;22842;-77
2021/08/03 01:26:01;;;;;;;6.85;1.78;;;;;;;14.80;74.30;100127.64;126483;1093;22760;-77
2021/08/03 01:28:32;;;;;;;5.85;1.90;;;;;;;14.81;74.19;100122.80;126529;1093;24611;-77
2021/08/03 01:31:05;;;;;;;6.75;2.15;;;;;;;14.81;74.61;100134.03;126477;1093;22922;-76
2021/08/03 01:33:37;;;;;;;6.63;2.00;;;;;;;14.83;74.38;100135.06;126388;1093;22793;-77
2021/08/03 01:36:06;;;;;;;5.95;1.85;;;;;;;14.85;74.85;100134.54;126428;1093;22761;-77
2021/08/03 01:38:38;;;;;;;7.35;1.85;;;;;;;14.85;74.73;100132.50;126361;1092;22929;-77
2021/08/03 01:41:09;;;;;;;5.50;2.00;;;;;;;14.87;74.88;100131.98;126453;1093;22757;-77
2021/08/03 01:43:41;;;;;;;6.70;1.75;;;;;;;14.85;74.63;100134.54;126404;1093;24423;-77
2021/08/03 01:46:11;;;;;;;7.20;1.80;;;;;;;14.86;74.91;100136.83;126543;1093;22839;-77
2021/08/03 01:48:41;;;;;;;5.90;1.85;;;;;;;14.86;74.83;100141.68;126497;1093;22772;-77
2021/08/03 01:51:10;;;;;;;5.35;1.73;;;;;;;14.86;75.36;100141.68;126524;1093;22749;-77
2021/08/03 01:53:39;;;;;;;6.70;1.90;;;;;;;14.85;75.47;100143.75;126448;1093;26643;-77
2021/08/03 01:56:10;;;;;;;6.93;2.18;;;;;;;14.83;74.99;100137.88;126493;1093;22795;-77
2021/08/03 01:58:39;;;;;;;5.80;1.70;;;;;;;14.83;75.55;100137.88;126463;1093;26623;-77
2021/08/03 02:01:10;;;;;;;5.53;1.68;;;;;;;14.82;75.25;100141.95;126476;1093;26239;-76
2021/08/03 02:03:40;;;;;;;5.07;1.77;;;;;;;14.81;75.64;100148.08;126470;1092;23008;-76
2021/08/03 02:06:09;;;;;;;7.75;1.90;;;;;;;14.81;75.15;100151.67;126506;1092;22766;-76
2021/08/03 02:08:40;;;;;;;5.83;1.65;;;;;;;14.81;75.46;100148.86;126489;1093;22778;-77
2021/08/03 02:11:10;;;;;;;5.45;1.85;;;;;;;14.80;75.38;100149.34;126433;1093;22781;-76
2021/08/03 02:13:39;;;;;;;5.58;1.73;;;;;;;14.78;75.50;100152.67;126603;1092;26248;-77
2021/08/03 02:16:09;;;;;;;5.95;1.95;;;;;;;14.76;75.24;100152.42;126455;1093;24433;-76
2021/08/03 02:18:37;;;;;;;6.05;1.80;;;;;;;14.76;75.71;100155.23;126504;1093;23747;-77
2021/08/03 02:21:05;;;;;;;6.37;2.10;;;;;;;14.76;75.48;100162.89;126443;1093;22779;-77
2021/08/03 02:23:34;;;;;;;10.33;2.10;;;;;;;14.75;75.39;100162.14;126448;1093;22922;-77
2021/08/03 02:26:02;;;;;;;5.20;1.80;;;;;;;14.76;75.82;100166.47;126445;1093;22824;-77
2021/08/03 02:28:31;;;;;;;4.93;1.60;;;;;;;14.77;75.99;100164.44;126436;1093;22839;-77
2021/08/03 02:31:02;;;;;;;5.60;1.85;;;;;;;14.76;76.13;100168.50;126458;1092;24465;-78
2021/08/03 02:33:35;;;;;;;5.05;1.90;;;;;;;14.74;76.09;100169.02;126470;1093;22805;-76
2021/08/03 02:36:09;;;;;;;5.70;1.80;;;;;;;14.75;76.02;100169.80;126479;1092;26386;-77
2021/08/03 02:38:46;;;;;;;5.50;1.87;;;;;;;14.75;76.16;100172.61;126433;1093;22917;-77
2021/08/03 02:41:16;;;;;;;5.00;1.80;;;;;;;14.74;76.19;100165.44;126447;1092;23004;-77
2021/08/03 02:43:45;;;;;;;;;;;;;;;14.73;76.39;100164.70;126584;1093;22770;-77
2021/08/03 02:46:16;;;;;;;8.05;1.93;;;;;;;14.72;76.30;100160.34;126527;1093;21597;-77
2021/08/03 02:48:59;;;;;;;7.20;1.95;;;;;;;14.72;75.84;100163.15;126653;1093;22772;-76
2021/08/03 02:51:30;;;;;;;7.90;2.10;;;;;;;14.72;76.26;100176.42;126393;1093;22915;-77
2021/08/03 02:54:02;;;;;;;7.65;2.00;;;;;;;14.71;76.35;100170.03;126419;1093;22767;-77
2021/08/03 02:56:34;;;;;;;7.50;2.40;;;;;;;14.73;76.30;100172.35;126452;1092;22815;-77
2021/08/03 02:59:11;;;;;;;7.80;2.30;;;;;;;14.74;76.65;100179.48;126439;1093;22781;-77
2021/08/03 03:01:42;;;;;;;10.70;2.35;;;;;;;14.75;76.59;100181.04;126466;1093;26940;-76
2021/08/03 03:04:17;;;;;;;8.83;2.30;;;;;;;14.76;76.65;100182.55;126434;1093;22841;-77
2021/08/03 03:06:52;;;;;;;8.35;2.05;;;;;;;14.76;76.76;100174.90;126468;1093;23431;-77
2021/08/03 03:09:23;;;;;;;5.70;1.90;;;;;;;14.78;76.79;100177.97;126391;1093;22854;-77
2021/08/03 03:11:53;;;;;;;6.75;2.15;;;;;;;14.78;77.20;100183.59;126347;1093;22764;-77
2021/08/03 03:14:25;;;;;;;10.30;2.30;;;;;;;14.78;76.84;100183.59;126557;1093;23389;-77
2021/08/03 03:16:57;;;;;;;9.60;2.50;;;;;;;14.78;77.33;100186.40;126469;1092;25461;-77
2021/08/03 03:19:26;;;;;;;8.63;2.43;;;;;;;14.79;77.18;100198.41;126425;1093;22794;-77
2021/08/03 03:21:56;;;;;;;7.67;2.23;;;;;;;14.79;77.48;100187.17;126404;1093;22772;-77
2021/08/03 03:24:25;;;;;;;7.23;2.28;;;;;;;14.80;77.39;100183.84;126565;1093;23934;-77
2021/08/03 03:26:54;;;;;;;7.00;2.20;;;;;;;14.82;77.24;100180.52;126502;1092;22767;-77
2021/08/03 03:29:24;;;;;;;7.27;2.23;;;;;;;14.81;77.34;100184.63;126519;1093;22782;-76
2021/08/03 03:31:55;;;;;;;12.10;2.40;;;;;;;14.81;77.69;100188.20;126514;1093;22781;-76
2021/08/03 03:34:26;;;;;;;8.95;2.75;;;;;;;14.82;77.84;100174.89;126583;1093;22787;-77
2021/08/03 03:36:56;;;;;;;9.80;3.00;;;;;;;14.84;77.65;100183.58;126468;1093;23517;-77
2021/08/03 03:39:24;;;;;;;;;;;;;;;14.84;77.80;100184.36;126477;1093;24174;-76
2021/08/03 03:41:56;;;;;;;7.30;2.15;;;;;;;14.85;77.49;100185.13;126412;1093;21460;-77
2021/08/03 03:44:24;;;;;;;10.60;2.60;;;;;;;14.85;77.83;100185.91;126407;1093;22960;-77
2021/08/03 03:46:57;;;;;;;7.85;2.40;;;;;;;14.85;77.89;100179.52;126449;1093;27352;-77
2021/08/03 03:49:30;;;;;;;9.70;2.20;;;;;;;14.86;77.80;100192.27;126423;1093;22848;-77
2021/08/03 03:52:04;;;;;;;7.95;2.50;;;;;;;14.88;77.66;100189.72;126530;1092;22919;-77
2021/08/03 03:54:36;;;;;;;8.85;2.55;;;;;;;14.90;77.75;100193.56;126453;1093;22800;-77
2021/08/03 03:57:09;;;;;;;8.80;2.40;;;;;;;14.92;77.91;100193.81;126494;1092;22773;-77
2021/08/03 03:59:41;;;;;;;6.60;2.37;;;;;;;14.94;78.15;100193.33;126400;1093;22768;-76
2021/08/03 04:02:12;;;;;;;7.20;2.80;;;;;;;14.94;78.07;100194.07;126374;1093;22775;-77
2021/08/03 04:04:45;;;;;;;6.80;2.50;;;;;;;14.98;78.04;100200.20;126388;1093;22842;-77
2021/08/03 04:07:14;;;;;;;10.03;3.27;;;;;;;15.02;78.05;100205.59;126434;1093;22794;-77
2021/08/03 04:09:42;;;;;;;6.55;2.40;;;;;;;15.02;77.74;100200.72;126368;1092;23358;-77
2021/08/03 04:12:12;;;;;;;8.57;2.63;;;;;;;15.02;77.81;100203.53;126414;1093;22869;-77
2021/08/03 04:14:42;;;;;;;7.15;2.13;;;;;;;15.01;77.94;100201.23;126454;1093;22754;-77
2021/08/03 04:17:10;;;;;;;7.65;2.48;;;;;;;14.99;78.07;100201.75;126478;1093;22839;-77
2021/08/03 04:19:39;;;;;;;7.45;2.60;;;;;;;14.99;77.66;100195.36;126429;1093;25322;-77
2021/08/03 04:22:07;;;;;;;8.50;2.90;;;;;;;14.98;77.66;100193.84;126408;1092;27530;-77
2021/08/03 04:24:35;;;;;;;8.35;2.25;;;;;;;14.95;77.85;100201.24;126449;1093;27645;-77
2021/08/03 04:27:05;;;;;;;9.55;2.85;;;;;;;14.95;77.92;100197.66;126470;1093;23369;-77
2021/08/03 04:29:34;;;;;;;6.43;2.13;;;;;;;14.93;78.03;100195.36;126463;1093;23530;-77
2021/08/03 04:32:03;;;;;;;9.50;2.45;;;;;;;14.95;77.66;100195.62;126404;1093;22915;-77
2021/08/03 04:34:33;;;;;;;10.60;2.75;;;;;;;14.98;77.48;100200.20;126481;1093;22877;-76
2021/08/03 04:37:02;;;;;;;11.15;3.70;;;;;;;15.01;77.59;100199.20;126462;1093;22800;-76
2021/08/03 04:39:31;;;;;;;11.87;2.97;;;;;;;15.03;78.00;100202.27;126437;1093;22756;-76
2021/08/03 04:42:00;;;;;;;8.83;3.10;;;;;;;15.06;78.33;100201.23;126551;1093;22737;-77
2021/08/03 04:44:28;;;;;;;9.50;3.15;;;;;;;15.11;78.08;100203.28;126449;1093;25852;-77
2021/08/03 04:46:57;;;;;;;8.00;3.00;;;;;;;15.14;78.25;100188.22;126469;1093;25872;-77
2021/08/03 04:49:26;;;;;;;9.00;3.25;;;;;;;15.20;78.37;100197.41;126389;1093;22778;-77
2021/08/03 04:51:54;;;;;;;10.75;3.00;;;;;;;15.27;77.98;100208.13;126402;1093;22751;-76
2021/08/03 04:54:23;;;;;;;7.73;3.17;;;;;;;15.35;78.52;100195.08;126431;1093;25534;-77
2021/08/03 04:56:51;;;;;;;11.05;3.05;;;;;;;15.45;78.77;100192.81;126399;1093;22752;-77
2021/08/03 04:59:20;;;;;;;10.67;3.30;;;;;;;15.55;78.83;100199.70;126449;1093;22909;-77
2021/08/03 05:01:49;;;;;;;11.95;3.15;;;;;;;15.64;78.86;100193.03;126433;1093;24384;-77
2021/08/03 05:04:17;;;;;;;13.35;3.50;;;;;;;15.72;78.65;100194.81;126430;1093;22885;-75
2021/08/03 05:06:46;;;;;;;10.30;3.00;;;;;;;15.83;78.84;100194.02;126424;1093;22766;-76
2021/08/03 05:09:14;;;;;;;10.17;3.20;;;;;;;15.94;78.57;100202.41;126439;1093;26353;-77
2021/08/03 05:11:42;;;;;;;10.40;3.25;;;;;;;16.03;78.66;100202.90;126456;1093;22810;-77
2021/08/03 05:14:13;;;;;;;11.63;3.83;;;;;;;16.11;78.49;100206.70;126466;1093;22799;-77
2021/08/03 05:16:42;;;;;;;9.30;3.55;;;;;;;16.18;78.37;100200.52;126464;1093;23540;-77
2021/08/03 05:19:10;;;;;;;11.83;3.53;;;;;;;16.25;78.06;100201.25;126366;1093;22888;-77
2021/08/03 05:21:39;;;;;;;9.45;3.10;;;;;;;16.31;78.33;100199.95;126417;1093;22781;-77
2021/08/03 05:24:08;;;;;;;;;;;;;;;16.36;77.54;100210.44;126495;1093;23194;-76
2021/08/03 05:26:38;;;;;;;9.97;2.50;;;;;;;16.40;77.46;100201.70;126599;1093;23153;-76
2021/08/03 05:29:06;;;;;;;10.50;3.15;;;;;;;16.45;77.88;100207.30;126433;1093;26521;-77
2021/08/03 05:31:34;;;;;;;9.80;3.05;;;;;;;16.51;77.18;100210.88;126311;1092;22791;-77
2021/08/03 05:34:03;;;;;;;7.85;2.70;;;;;;;16.55;77.00;100210.63;126498;1093;22861;-77
2021/08/03 05:36:31;;;;;;;9.70;3.20;;;;;;;16.61;77.04;100208.53;126420;1093;22831;-76
2021/08/03 05:39:02;;;;;;;9.90;3.40;;;;;;;16.67;77.14;100212.85;126425;1093;22777;-78
2021/08/03 05:41:30;;;;;;;7.90;2.90;;;;;;;16.73;77.33;100209.98;126372;1092;25964;-76
2021/08/03 05:43:59;;;;;;;10.20;2.95;;;;;;;16.78;77.25;100207.13;126357;1093;23211;-77
2021/08/03 05:46:27;;;;;;;8.85;2.60;;;;;;;16.84;76.80;100193.01;126444;1093;22764;-77
2021/08/03 05:48:56;;;;;;;8.47;2.93;;;;;;;16.87;76.89;100194.77;126403;1092;22768;-77
2021/08/03 05:51:25;;;;;;;10.70;3.15;;;;;;;16.92;76.63;100200.36;126476;1093;22863;-77
2021/08/03 05:53:56;;;;;;;9.20;2.75;;;;;;;16.95;76.75;100193.68;126452;1093;22778;-77
2021/08/03 05:56:36;;;;;;;9.33;3.10;;;;;;;17.04;76.56;100197.45;126425;1093;22886;-77
2021/08/03 05:59:05;;;;;;;7.20;2.50;;;;;;;17.10;76.55;100201.77;126507;1093;26379;-77
2021/08/03 06:01:34;;;;;;;8.83;3.00;;;;;;;17.16;76.61;100205.31;126532;1093;22821;-77
2021/08/03 06:04:03;;;;;;;10.30;2.60;;;;;;;17.22;76.33;100199.61;126584;1093;22852;-77
2021/08/03 06:06:39;;;;;;;11.20;3.05;;;;;;;17.27;75.97;100191.11;126389;1093;22836;-77
2021/08/03 06:09:10;;;;;;;7.95;2.40;;;;;;;17.32;75.90;100201.57;126496;1093;25669;-76
2021/08/03 06:11:45;;;;;;;7.10;2.40;;;;;;;17.37;76.15;100203.59;126471;1093;22781;-77
2021/08/03 06:14:27;;;;;;;11.90;3.00;;;;;;;17.38;75.43;100199.46;126506;1092;26270;-77
2021/08/03 06:17:00;;;;;;;9.45;2.65;;;;;;;17.39;75.18;100201.00;126469;1093;22860;-77
2021/08/03 06:19:32;;;;;;;11.25;2.90;;;;;;;17.44;75.50;100205.81;126623;1093;24455;-76
2021/08/03 06:22:02;;;;;;;8.60;2.40;;;;;;;17.50;75.09;100208.64;126555;1092;22767;-77
2021/08/03 06:24:31;;;;;;;7.35;2.25;;;;;;;17.51;74.94;100207.33;126536;1093;22781;-77
2021/08/03 06:27:02;;;;;;;;;;;;;;;17.54;75.21;100207.05;126576;1093;22767;-77
2021/08/03 06:29:32;;;;;;;6.80;2.00;;;;;;;17.58;75.07;100207.53;126416;1093;21456;-77
2021/08/03 06:32:04;;;;;;;9.88;2.60;;;;;;;17.60;74.83;100210.59;126557;1093;22905;-76
2021/08/03 06:34:35;;;;;;;7.80;2.20;;;;;;;17.63;74.38;100203.09;126593;1093;22748;-76
2021/08/03 06:37:04;;;;;;;9.15;2.45;;;;;;;17.67;74.61;100200.77;126581;1091;24483;-76
2021/08/03 06:39:33;;;;;;;8.40;1.90;;;;;;;17.74;74.69;100209.41;126510;1093;22901;-77
2021/08/03 06:42:06;;;;;;;5.63;1.60;;;;;;;17.78;73.40;100207.05;126435;1093;25833;-77
2021/08/03 06:44:43;;;;;;;7.10;1.90;;;;;;;17.84;73.82;100206.21;126465;1093;24531;-78
2021/08/03 06:47:14;;;;;;;8.40;2.30;;;;;;;17.95;73.39;100204.05;126550;1093;22777;-77
2021/08/03 06:49:48;;;;;;;8.10;2.80;;;;;;;18.04;73.01;100206.52;126502;1093;24278;-77
2021/08/03 06:52:19;;;;;;;6.27;1.70;;;;;;;18.09;72.70;100202.84;126600;1092;22969;-77
2021/08/03 06:54:51;;;;;;;7.30;1.60;;;;;;;18.15;72.85;100200.71;126561;1093;27393;-77
2021/08/03 06:57:24;;;;;;;7.10;2.20;;;;;;;18.26;72.69;100199.81;126507;1093;22835;-77
2021/08/03 06:59:59;;;;;;;8.15;1.80;;;;;;;18.34;71.95;100200.73;126551;1093;22782;-77
2021/08/03 07:02:31;;;;;;;8.63;1.97;;;;;;;18.40;72.29;100201.41;126474;1093;22781;-77
2021/08/03 07:05:02;;;;;;;6.30;1.83;;;;;;;18.42;72.17;100199.59;126561;1093;22732;-77
2021/08/03 07:07:33;;;;;;;6.70;1.75;;;;;;;18.44;71.88;100191.37;126651;1093;22748;-77
2021/08/03 07:10:06;;;;;;;7.73;1.90;;;;;;;18.53;71.81;100204.36;126458;1093;22802;-77
2021/08/03 07:12:35;;;;;;;8.63;1.50;;;;;;;18.61;71.66;100198.84;126574;1093;22761;-77
2021/08/03 07:15:05;;;;;;;6.23;1.80;;;;;;;18.68;70.87;100206.73;126542;1093;25854;-77
2021/08/03 07:17:37;;;;;;;7.75;1.83;;;;;;;18.73;71.06;100203.03;126570;1093;22906;-77
2021/08/03 07:20:10;;;;;;;6.13;1.63;;;;;;;18.81;70.95;100212.45;126811;1093;26373;-77
2021/08/03 07:22:39;;;;;;;6.97;1.60;;;;;;;18.90;70.81;100201.50;126635;1093;22848;-77
2021/08/03 07:25:10;;;;;;;7.73;1.50;;;;;;;18.99;70.22;100200.34;126445;1093;22802;-77
2021/08/03 07:27:38;;;;;;;5.15;1.30;;;;;;;19.04;69.96;100207.95;126448;1093;22751;-78
2021/08/03 07:30:10;;;;;;;5.65;1.50;;;;;;;19.10;69.58;100211.45;126447;1092;24158;-77
2021/08/03 07:32:39;;;;;;;7.18;1.45;;;;;;;19.15;69.29;100202.90;126518;1093;26255;-77
2021/08/03 07:35:10;;;;;;;6.00;1.35;;;;;;;19.16;68.12;100212.91;126570;1093;27166;-76
2021/08/03 07:37:38;;;;;;;7.67;1.47;;;;;;;19.18;68.53;100210.30;126509;1093;26621;-77
2021/08/03 07:40:09;;;;;;;6.70;1.60;;;;;;;19.19;68.07;100203.34;126458;1093;22771;-78
2021/08/03 07:42:38;;;;;;;9.97;1.30;;;;;;;19.20;68.78;100206.95;126606;1093;25878;-78
2021/08/03 07:45:07;;;;;;;8.65;1.90;;;;;;;19.27;68.80;100201.41;126461;1093;22729;-77
2021/08/03 07:47:35;;;;;;;7.30;1.20;;;;;;;19.41;67.90;100202.22;126482;1093;24434;-77
2021/08/03 07:50:05;;;;;;;6.63;1.25;;;;;;;19.54;67.84;100205.08;126517;1093;23001;-78
2021/08/03 07:52:33;;;;;;;;;;;;;;;19.66;67.85;100203.56;126603;1093;22781;-77
2021/08/03 07:55:01;;;;;;;3.98;1.13;;;;;;;19.73;66.91;100208.59;126449;1093;21499;-78
2021/08/03 07:57:30;;;;;;;5.33;1.30;;;;;;;19.80;67.05;100213.59;126479;1093;22743;-76
2021/08/03 07:59:58;;;;;;;6.38;1.30;;;;;;;19.89;66.87;100201.84;126426;1092;22765;-77
2021/08/03 08:02:30;;;;;;;5.63;1.40;;;;;;;19.98;66.53;100200.64;126476;1093;27230;-76
2021/08/03 08:04:59;;;;;;;5.63;1.30;;;;;;;20.05;66.73;100211.31;126458;1093;22765;-77
2021/08/03 08:07:28;;;;;;;7.30;1.43;;;;;;;20.13;66.36;100210.11;126459;1092;22940;-76
2021/08/03 08:09:56;;;;;;;7.63;1.20;;;;;;;20.25;66.40;100207.86;126387;1093;24447;-77
2021/08/03 08:12:25;;;;;;;4.97;1.10;;;;;;;20.30;65.92;100206.22;126420;1093;26301;-77
2021/08/03 08:14:54;;;;;;;5.05;1.10;;;;;;;20.36;65.86;100209.69;126442;1093;24258;-78
2021/08/03 08:17:22;;;;;;;4.13;1.10;;;;;;;20.39;64.75;100205.75;126482;1093;22947;-77
2021/08/03 08:19:51;;;;;;;4.65;1.10;;;;;;;20.41;64.49;100211.63;126514;1093;22771;-76
2021/08/03 08:22:19;;;;;;;6.60;1.30;;;;;;;20.46;64.45;100207.92;126489;1093;22771;-77
2021/08/03 08:24:49;;;;;;;6.70;1.33;;;;;;;20.49;63.85;100213.25;126394;1093;24361;-77
2021/08/03 08:27:18;;;;;;;4.10;1.10;;;;;;;20.47;63.19;100215.11;126506;1093;22764;-78
2021/08/03 08:29:46;;;;;;;5.85;1.20;;;;;;;20.41;63.60;100205.95;126473;1093;25951;-77
2021/08/03 08:32:16;;;;;;;5.30;1.30;;;;;;;20.46;63.47;100205.86;126455;1093;22900;-78
2021/08/03 08:34:44;;;;;;;4.55;1.10;;;;;;;20.54;63.15;100205.94;126577;1093;22766;-77
2021/08/03 08:37:13;;;;;;;7.20;1.40;;;;;;;20.61;63.11;100208.86;126537;1092;24418;-76
2021/08/03 08:39:42;;;;;;;6.38;1.65;;;;;;;20.71;62.07;100206.33;126493;1093;22788;-77
2021/08/03 08:42:11;;;;;;;8.23;1.03;;;;;;;20.72;61.83;100211.45;126509;1093;22764;-78
2021/08/03 08:44:40;;;;;;;5.38;1.13;;;;;;;20.70;61.73;100213.31;126438;1093;22931;-76
2021/08/03 08:47:09;;;;;;;3.90;1.18;;;;;;;20.73;61.82;100209.38;126453;1093;26235;-77
2021/08/03 08:49:40;;;;;;;4.00;1.00;;;;;;;20.82;60.93;100208.90;126488;1093;22938;-77
2021/08/03 08:52:09;;;;;;;3.88;0.95;;;;;;;20.72;61.14;100205.78;126513;1093;22815;-77
2021/08/03 08:54:38;;;;;;;4.53;1.23;;;;;;;20.66;61.50;100207.98;126483;1093;25868;-77
2021/08/03 08:57:09;;;;;;;4.63;1.00;;;;;;;20.71;61.65;100207.08;126505;1092;26262;-77
2021/08/03 08:59:37;;;;;;;4.83;1.08;;;;;;;20.87;61.04;100202.34;126565;1093;24421;-77
2021/08/03 09:02:06;;;;;;;2.43;0.80;;;;;;;20.94;60.01;100210.92;126452;1093;22751;-76
2021/08/03 09:04:36;;;;;;;3.80;1.20;;;;;;;20.94;60.40;100207.31;126438;1093;23362;-77
2021/08/03 09:07:06;;;;;;;;;;;;;;;20.96;60.49;100216.81;126436;1092;23046;-77
2021/08/03 09:09:43;;;;;;;3.65;1.10;;;;;;;20.96;59.61;100213.97;126438;1093;24239;-76
2021/08/03 09:12:13;;;;;;;4.00;1.10;;;;;;;20.98;60.62;100204.16;126643;1093;22764;-77
2021/08/03 09:14:43;;;;;;;2.48;0.88;;;;;;;20.97;59.81;100203.39;126464;1093;22764;-77
2021/08/03 09:17:25;;;;;;;4.13;0.90;;;;;;;20.98;60.11;100207.77;126555;1093;25862;-77
2021/08/03 09:19:54;;;;;;;2.73;0.90;;;;;;;21.00;59.92;100198.69;126473;1092;24387;-77
2021/08/03 09:22:24;;;;;;;2.75;0.95;;;;;;;20.97;59.51;100211.91;126442;1092;22755;-77
2021/08/03 09:25:09;;;;;;;4.53;1.10;;;;;;;20.95;59.18;100203.95;126515;1093;24329;-76
2021/08/03 09:27:41;;;;;;;3.23;0.90;;;;;;;20.93;58.95;100202.97;126558;1093;23351;-77
2021/08/03 09:30:27;;;;;;;3.20;1.03;;;;;;;20.90;58.65;100204.06;126586;1093;22918;-77
2021/08/03 09:32:57;;;;;;;2.85;0.90;;;;;;;20.87;58.91;100197.44;126455;1093;22768;-77
2021/08/03 09:35:25;;;;;;;;;;;;;;;20.91;59.24;100202.77;126599;1091;23428;-77
2021/08/03 09:37:56;;;;;;;4.03;1.10;;;;;;;20.89;58.27;100194.04;126432;1093;23172;-77
2021/08/03 09:40:27;;;;;;;2.98;1.10;;;;;;;20.89;58.65;100194.81;126399;1093;22758;-77
2021/08/03 09:43:00;;;;;;;3.38;0.85;;;;;;;20.90;57.85;100204.06;126523;1093;22826;-77
2021/08/03 09:45:31;;;;;;;4.23;0.85;;;;;;;20.94;58.11;100199.58;126570;1093;23398;-76
2021/08/03 09:48:12;;;;;;;2.90;0.90;;;;;;;21.12;58.98;100192.22;126518;1093;22925;-77
2021/08/03 09:50:55;;;;;;;5.43;1.03;;;;;;;21.41;58.09;100201.55;126398;1093;22989;-77
2021/08/03 09:53:48;;;;;;;3.28;0.90;;;;;;;21.64;58.19;100186.19;126434;1093;24601;-76
2021/08/03 09:56:19;;;;;;;2.13;0.80;;;;;;;21.83;57.50;100191.66;126592;1093;22771;-76
2021/08/03 09:58:58;;;;;;;6.98;0.80;;;;;;;22.02;56.90;100189.31;126477;1093;23029;-77
2021/08/03 10:01:32;;;;;;;2.00;0.60;;;;;;;22.15;56.04;100188.44;126553;1093;22755;-77
2021/08/03 10:04:03;;;;;;;5.98;0.90;;;;;;;22.31;55.66;100190.79;126541;1093;27228;-77
2021/08/03 10:06:34;;;;;;;1.90;0.70;;;;;;;22.44;56.13;100187.81;126513;1093;22769;-76
2021/08/03 10:09:04;;;;;;;3.98;0.80;;;;;;;22.65;55.91;100193.42;126449;1093;25961;-76
2021/08/03 10:11:33;;;;;;;2.83;0.70;;;;;;;22.76;55.06;100186.63;126462;1093;22784;-77
2021/08/03 10:14:02;;;;;;;3.55;0.70;;;;;;;22.80;54.97;100176.36;126504;1093;22778;-77
2021/08/03 10:16:31;;;;;;;5.13;1.03;;;;;;;22.88;54.79;100182.86;126559;1093;26267;-78
2021/08/03 10:19:01;;;;;;;2.30;0.80;;;;;;;22.99;54.68;100173.17;126496;1092;22764;-77
2021/08/03 10:21:34;;;;;;;2.95;0.73;;;;;;;23.13;54.55;100175.27;126581;1093;22914;-77
2021/08/03 10:24:12;;;;;;;2.68;0.60;;;;;;;23.19;53.84;100175.11;126486;1093;22787;-77
2021/08/03 10:26:41;;;;;;;2.43;0.60;;;;;;;23.11;52.78;100166.55;126424;1091;22919;-77
2021/08/03 10:29:23;;;;;;;2.95;0.70;;;;;;;23.09;52.79;100172.05;126485;1092;22755;-77
2021/08/03 10:31:53;;;;;;;4.37;0.80;;;;;;;23.14;53.08;100165.42;126489;1093;22781;-77
2021/08/03 10:35:01;;;;;;;2.50;0.70;;;;;;;23.25;53.16;100167.91;126619;1093;22838;-77
2021/08/03 10:38:11;;;;;;;2.78;0.53;;;;;;;23.43;52.08;100165.25;126552;1093;22908;-77
2021/08/03 10:41:07;;;;;;;2.75;0.70;;;;;;;23.43;51.33;100168.09;126179;1095;24632;-78
2021/08/03 10:43:54;;;;;;;2.50;0.70;;;;;;;23.36;51.23;100166.03;126204;1095;22873;-77
2021/08/03 10:46:38;;;;;;;2.80;0.60;;;;;;;23.41;51.16;100159.36;126188;1096;26531;-76
2021/08/03 10:49:07;;;;;;;4.88;0.70;;;;;;;23.42;51.19;100158.81;126369;1096;22912;-77
2021/08/03 10:51:44;;;;;;;3.10;0.65;;;;;;;23.49;50.97;100151.56;126325;1095;22772;-77
2021/08/03 10:54:16;;;;;;;2.23;0.80;;;;;;;23.48;51.91;100156.53;126249;1096;22899;-77
2021/08/03 10:57:12;;;;;;;2.90;0.80;;;;;;;23.52;51.53;100153.28;126179;1096;26284;-77
2021/08/03 10:59:41;;;;;;;5.50;0.80;;;;;;;23.51;51.73;100152.52;126224;1096;22842;-77
2021/08/03 11:02:30;;;;;;;2.38;0.78;;;;;;;23.48;51.52;100147.98;126214;1096;27185;-77
2021/08/03 11:05:00;;;;;;;3.75;0.70;;;;;;;23.49;51.74;100152.33;126160;1095;22896;-76
2021/08/03 11:07:32;;;;;;;2.15;0.80;;;;;;;23.51;51.64;100151.75;126234;1096;22794;-77
2021/08/03 11:10:02;;;;;;;2.55;0.68;;;;;;;23.44;51.51;100146.84;126316;1095;22787;-78
2021/08/03 11:12:41;;;;;;;2.58;0.80;;;;;;;23.42;51.56;100147.42;126217;1096;24442;-76
2021/08/03 11:15:39;;;;;;;3.83;0.73;;;;;;;23.41;51.38;100142.27;126168;1095;26264;-78
2021/08/03 11:18:14;;;;;;;2.25;0.60;;;;;;;23.41;51.27;100128.80;126169;1096;22901;-77
2021/08/03 11:21:13;;;;;;;3.18;0.93;;;;;;;23.51;51.73;100128.95;126159;1096;22774;-76
2021/08/03 11:24:02;;;;;;;2.45;0.70;;;;;;;23.64;51.11;100129.52;126178;1095;22783;-77
2021/08/03 11:26:33;;;;;;;2.20;0.60;;;;;;;23.78;51.47;100124.34;126251;1096;22807;-76
2021/08/03 11:29:07;;;;;;;1.83;0.50;;;;;;;23.91;51.05;100122.05;126023;1095;23009;-76
2021/08/03 11:31:54;;;;;;;5.55;0.70;;;;;;;24.04;51.35;100123.93;126283;1095;25861;-76
2021/08/03 11:34:27;;;;;;;3.35;0.70;;;;;;;24.13;51.54;100123.31;126203;1095;22818;-77
2021/08/03 11:37:18;;;;;;;2.43;0.70;;;;;;;24.24;51.48;100111.48;126231;1096;22780;-78